sensor_id;sensor_type;location;lat;lon;timestamp;temperature;humidity
6407;DHT22;3236;51.022;6.818;2024-03-17T00:03:42;5.30;99.90
6407;DHT22;3236;51.022;6.818;2024-03-17T00:08:36;5.80;99.90
6407;DHT22;3236;51.022;6.818;2024-03-17T00:11:02;5.50;99.90
6407;DHT22;3236;51.022;6.818;2024-03-17T00:13:32;5.90;99.90
6407;DHT22;3236;51.022;6.818;2024-03-17T00:15:59;5.70;99.90
6407;DHT22;3236;51.022;6.818;2024-03-17T00:18:26;5.50;99.90
6407;DHT22;3236;51.022;6.818;2024-03-17T00:20:53;6.00;99.90
6407;DHT22;3236;51.022;6.818;2024-03-17T00:23:20;5.30;99.90
6407;DHT22;3236;51.022;6.818;2024-03-17T00:28:16;5.50;99.90
6407;DHT22;3236;51.022;6.818;2024-03-17T00:30:42;5.70;99.90
6407;DHT22;3236;51.022;6.818;2024-03-17T00:33:10;5.50;99.90
6407;DHT22;3236;51.022;6.818;2024-03-17T00:35:36;5.60;99.90
6407;DHT22;3236;51.022;6.818;2024-03-17T00:38:04;5.40;99.90
6407;DHT22;3236;51.022;6.818;2024-03-17T00:40:35;5.70;99.90
6407;DHT22;3236;51.022;6.818;2024-03-17T00:43:01;5.50;99.90
6407;DHT22;3236;51.022;6.818;2024-03-17T00:45:29;5.60;99.90
6407;DHT22;3236;51.022;6.818;2024-03-17T00:47:55;5.60;99.90
6407;DHT22;3236;51.022;6.818;2024-03-17T00:50:23;5.90;99.90
6407;DHT22;3236;51.022;6.818;2024-03-17T00:52:49;5.80;99.90
6407;DHT22;3236;51.022;6.818;2024-03-17T00:55:16;6.00;99.90
6407;DHT22;3236;51.022;6.818;2024-03-17T00:57:42;6.10;99.90
6407;DHT22;3236;51.022;6.818;2024-03-17T01:00:10;5.40;99.90
6407;DHT22;3236;51.022;6.818;2024-03-17T01:02:37;5.80;99.90
6407;DHT22;3236;51.022;6.818;2024-03-17T01:05:06;5.40;99.90
6407;DHT22;3236;51.022;6.818;2024-03-17T01:07:33;5.40;99.90
6407;DHT22;3236;51.022;6.818;2024-03-17T01:10:00;5.40;99.90
6407;DHT22;3236;51.022;6.818;2024-03-17T01:17:21;5.40;99.90
6407;DHT22;3236;51.022;6.818;2024-03-17T01:19:48;5.40;99.90
6407;DHT22;3236;51.022;6.818;2024-03-17T01:22:14;5.20;99.90
6407;DHT22;3236;51.022;6.818;2024-03-17T01:24:43;5.40;99.90
6407;DHT22;3236;51.022;6.818;2024-03-17T01:27:11;5.40;99.90
6407;DHT22;3236;51.022;6.818;2024-03-17T01:29:41;5.80;99.90
6407;DHT22;3236;51.022;6.818;2024-03-17T01:32:08;6.30;99.90
6407;DHT22;3236;51.022;6.818;2024-03-17T01:34:36;5.40;99.90
6407;DHT22;3236;51.022;6.818;2024-03-17T01:37:02;5.40;99.90
6407;DHT22;3236;51.022;6.818;2024-03-17T01:39:29;5.30;99.90
6407;DHT22;3236;51.022;6.818;2024-03-17T01:41:58;4.80;99.90
6407;DHT22;3236;51.022;6.818;2024-03-17T01:44:27;5.10;99.90
6407;DHT22;3236;51.022;6.818;2024-03-17T01:46:54;4.80;99.90
6407;DHT22;3236;51.022;6.818;2024-03-17T01:49:22;5.10;99.90
6407;DHT22;3236;51.022;6.818;2024-03-17T01:51:49;5.00;99.90
6407;DHT22;3236;51.022;6.818;2024-03-17T01:54:20;4.90;99.90
6407;DHT22;3236;51.022;6.818;2024-03-17T01:56:47;4.90;99.90
6407;DHT22;3236;51.022;6.818;2024-03-17T01:59:16;4.90;99.90
6407;DHT22;3236;51.022;6.818;2024-03-17T02:01:42;4.90;99.90
6407;DHT22;3236;51.022;6.818;2024-03-17T02:04:09;5.30;99.90
6407;DHT22;3236;51.022;6.818;2024-03-17T02:06:37;5.00;99.90
6407;DHT22;3236;51.022;6.818;2024-03-17T02:09:03;5.30;99.90
6407;DHT22;3236;51.022;6.818;2024-03-17T02:11:31;5.20;99.90
6407;DHT22;3236;51.022;6.818;2024-03-17T02:13:57;5.00;99.90
6407;DHT22;3236;51.022;6.818;2024-03-17T02:16:26;5.00;99.90
6407;DHT22;3236;51.022;6.818;2024-03-17T02:18:54;5.00;99.90
6407;DHT22;3236;51.022;6.818;2024-03-17T02:23:50;5.00;99.90
6407;DHT22;3236;51.022;6.818;2024-03-17T02:26:18;4.90;99.90
6407;DHT22;3236;51.022;6.818;2024-03-17T02:28:46;4.90;99.90
6407;DHT22;3236;51.022;6.818;2024-03-17T02:31:17;4.80;99.90
6407;DHT22;3236;51.022;6.818;2024-03-17T02:33:44;4.90;99.90
6407;DHT22;3236;51.022;6.818;2024-03-17T02:36:12;4.80;99.90
6407;DHT22;3236;51.022;6.818;2024-03-17T02:38:39;4.80;99.90
6407;DHT22;3236;51.022;6.818;2024-03-17T02:41:25;4.40;99.90
6407;DHT22;3236;51.022;6.818;2024-03-17T02:43:54;5.00;99.90
6407;DHT22;3236;51.022;6.818;2024-03-17T02:46:21;4.80;99.90
6407;DHT22;3236;51.022;6.818;2024-03-17T02:48:51;4.80;99.90
6407;DHT22;3236;51.022;6.818;2024-03-17T02:51:20;4.80;99.90
6407;DHT22;3236;51.022;6.818;2024-03-17T02:53:49;4.80;99.90
6407;DHT22;3236;51.022;6.818;2024-03-17T02:56:17;4.80;99.90
6407;DHT22;3236;51.022;6.818;2024-03-17T02:58:51;4.80;99.90
6407;DHT22;3236;51.022;6.818;2024-03-17T03:01:19;5.50;99.90
6407;DHT22;3236;51.022;6.818;2024-03-17T03:06:15;5.20;99.90
6407;DHT22;3236;51.022;6.818;2024-03-17T03:08:45;5.00;99.90
6407;DHT22;3236;51.022;6.818;2024-03-17T03:11:16;5.10;99.90
6407;DHT22;3236;51.022;6.818;2024-03-17T03:13:44;5.00;99.90
6407;DHT22;3236;51.022;6.818;2024-03-17T03:16:13;5.10;99.90
6407;DHT22;3236;51.022;6.818;2024-03-17T03:18:41;5.10;99.90
6407;DHT22;3236;51.022;6.818;2024-03-17T03:21:10;5.00;99.90
6407;DHT22;3236;51.022;6.818;2024-03-17T03:23:37;5.00;99.90
6407;DHT22;3236;51.022;6.818;2024-03-17T03:26:04;5.20;99.90
6407;DHT22;3236;51.022;6.818;2024-03-17T03:28:34;5.30;99.90
6407;DHT22;3236;51.022;6.818;2024-03-17T03:31:02;4.80;99.90
6407;DHT22;3236;51.022;6.818;2024-03-17T03:33:31;5.20;99.90
6407;DHT22;3236;51.022;6.818;2024-03-17T03:35:58;5.20;99.90
6407;DHT22;3236;51.022;6.818;2024-03-17T03:40:51;5.10;99.90
6407;DHT22;3236;51.022;6.818;2024-03-17T03:43:19;5.30;99.90
6407;DHT22;3236;51.022;6.818;2024-03-17T03:45:46;5.50;99.90
6407;DHT22;3236;51.022;6.818;2024-03-17T03:50:42;5.10;99.90
6407;DHT22;3236;51.022;6.818;2024-03-17T03:53:12;5.10;99.90
6407;DHT22;3236;51.022;6.818;2024-03-17T03:55:39;5.10;99.90
6407;DHT22;3236;51.022;6.818;2024-03-17T03:58:07;5.10;99.90
6407;DHT22;3236;51.022;6.818;2024-03-17T04:00:34;4.80;99.90
6407;DHT22;3236;51.022;6.818;2024-03-17T04:03:05;5.00;99.90
6407;DHT22;3236;51.022;6.818;2024-03-17T04:05:32;5.00;99.90
6407;DHT22;3236;51.022;6.818;2024-03-17T04:08:01;5.10;99.90
6407;DHT22;3236;51.022;6.818;2024-03-17T04:10:28;5.10;99.90
6407;DHT22;3236;51.022;6.818;2024-03-17T04:12:55;5.10;99.90
6407;DHT22;3236;51.022;6.818;2024-03-17T04:15:22;5.60;99.90
6407;DHT22;3236;51.022;6.818;2024-03-17T04:20:18;5.50;99.90
6407;DHT22;3236;51.022;6.818;2024-03-17T04:22:45;5.50;99.90
6407;DHT22;3236;51.022;6.818;2024-03-17T04:25:15;6.00;99.90
6407;DHT22;3236;51.022;6.818;2024-03-17T04:27:42;5.50;99.90
6407;DHT22;3236;51.022;6.818;2024-03-17T04:30:09;5.40;99.90
6407;DHT22;3236;51.022;6.818;2024-03-17T04:32:37;6.00;99.90
6407;DHT22;3236;51.022;6.818;2024-03-17T04:35:05;5.70;99.90
6407;DHT22;3236;51.022;6.818;2024-03-17T04:37:32;5.70;99.90
6407;DHT22;3236;51.022;6.818;2024-03-17T04:40:05;6.00;99.90
6407;DHT22;3236;51.022;6.818;2024-03-17T04:42:36;5.80;99.90
6407;DHT22;3236;51.022;6.818;2024-03-17T04:45:08;5.80;99.90
6407;DHT22;3236;51.022;6.818;2024-03-17T04:47:36;5.80;99.90
6407;DHT22;3236;51.022;6.818;2024-03-17T04:50:05;5.70;99.90
6407;DHT22;3236;51.022;6.818;2024-03-17T04:52:32;6.20;99.90
6407;DHT22;3236;51.022;6.818;2024-03-17T04:54:59;5.80;99.90
6407;DHT22;3236;51.022;6.818;2024-03-17T04:57:26;5.90;99.90
6407;DHT22;3236;51.022;6.818;2024-03-17T04:59:55;5.80;99.90
6407;DHT22;3236;51.022;6.818;2024-03-17T05:02:22;6.10;99.90
6407;DHT22;3236;51.022;6.818;2024-03-17T05:04:49;5.60;99.90
6407;DHT22;3236;51.022;6.818;2024-03-17T05:07:16;5.60;99.90
6407;DHT22;3236;51.022;6.818;2024-03-17T05:09:43;5.70;99.90
6407;DHT22;3236;51.022;6.818;2024-03-17T05:12:10;5.70;99.90
6407;DHT22;3236;51.022;6.818;2024-03-17T05:14:38;5.80;99.90
6407;DHT22;3236;51.022;6.818;2024-03-17T05:17:06;5.50;99.90
6407;DHT22;3236;51.022;6.818;2024-03-17T05:19:39;5.50;99.90
6407;DHT22;3236;51.022;6.818;2024-03-17T05:22:09;5.50;99.90
6407;DHT22;3236;51.022;6.818;2024-03-17T05:24:37;5.50;99.90
6407;DHT22;3236;51.022;6.818;2024-03-17T05:27:04;5.40;99.90
6407;DHT22;3236;51.022;6.818;2024-03-17T05:29:31;5.30;99.90
6407;DHT22;3236;51.022;6.818;2024-03-17T05:34:32;5.20;99.90
6407;DHT22;3236;51.022;6.818;2024-03-17T05:36:59;5.10;99.90
6407;DHT22;3236;51.022;6.818;2024-03-17T05:39:27;5.00;99.90
6407;DHT22;3236;51.022;6.818;2024-03-17T05:41:54;4.80;99.90
6407;DHT22;3236;51.022;6.818;2024-03-17T05:46:49;5.00;99.90
6407;DHT22;3236;51.022;6.818;2024-03-17T05:51:49;5.00;99.90
6407;DHT22;3236;51.022;6.818;2024-03-17T05:54:16;5.10;99.90
6407;DHT22;3236;51.022;6.818;2024-03-17T05:59:13;4.80;99.90
6407;DHT22;3236;51.022;6.818;2024-03-17T06:09:03;5.20;99.90
6407;DHT22;3236;51.022;6.818;2024-03-17T06:11:34;3.50;99.90
6407;DHT22;3236;51.022;6.818;2024-03-17T06:16:31;5.30;99.90
6407;DHT22;3236;51.022;6.818;2024-03-17T06:18:59;5.20;99.90
6407;DHT22;3236;51.022;6.818;2024-03-17T06:21:26;5.40;99.90
6407;DHT22;3236;51.022;6.818;2024-03-17T06:26:21;5.40;99.90
6407;DHT22;3236;51.022;6.818;2024-03-17T06:31:16;5.10;99.90
6407;DHT22;3236;51.022;6.818;2024-03-17T06:33:46;5.40;99.90
6407;DHT22;3236;51.022;6.818;2024-03-17T06:41:09;5.60;99.90
6407;DHT22;3236;51.022;6.818;2024-03-17T06:43:39;5.60;99.90
6407;DHT22;3236;51.022;6.818;2024-03-17T06:48:36;5.90;99.90
6407;DHT22;3236;51.022;6.818;2024-03-17T06:51:03;6.10;99.90
6407;DHT22;3236;51.022;6.818;2024-03-17T06:53:34;5.70;99.90
6407;DHT22;3236;51.022;6.818;2024-03-17T06:58:28;5.90;99.90
6407;DHT22;3236;51.022;6.818;2024-03-17T07:00:58;5.90;99.90
6407;DHT22;3236;51.022;6.818;2024-03-17T07:03:25;5.80;99.90
6407;DHT22;3236;51.022;6.818;2024-03-17T07:05:53;5.80;99.90
6407;DHT22;3236;51.022;6.818;2024-03-17T07:08:21;6.30;99.90
6407;DHT22;3236;51.022;6.818;2024-03-17T07:10:58;6.00;99.90
6407;DHT22;3236;51.022;6.818;2024-03-17T07:13:28;6.20;99.90
6407;DHT22;3236;51.022;6.818;2024-03-17T07:15:56;6.00;99.90
6407;DHT22;3236;51.022;6.818;2024-03-17T07:18:25;6.10;99.90
6407;DHT22;3236;51.022;6.818;2024-03-17T07:20:57;6.80;99.90
6407;DHT22;3236;51.022;6.818;2024-03-17T07:25:52;6.80;99.90
6407;DHT22;3236;51.022;6.818;2024-03-17T07:28:20;6.80;99.90
6407;DHT22;3236;51.022;6.818;2024-03-17T07:30:48;6.60;99.90
6407;DHT22;3236;51.022;6.818;2024-03-17T07:33:17;6.80;99.90
6407;DHT22;3236;51.022;6.818;2024-03-17T07:35:50;7.10;99.90
6407;DHT22;3236;51.022;6.818;2024-03-17T07:38:17;6.90;99.90
6407;DHT22;3236;51.022;6.818;2024-03-17T07:40:54;6.90;99.90
6407;DHT22;3236;51.022;6.818;2024-03-17T07:45:57;7.00;99.90
6407;DHT22;3236;51.022;6.818;2024-03-17T07:48:25;7.20;99.90
6407;DHT22;3236;51.022;6.818;2024-03-17T07:50:56;7.20;99.90
6407;DHT22;3236;51.022;6.818;2024-03-17T07:53:23;7.60;99.90
6407;DHT22;3236;51.022;6.818;2024-03-17T07:56:02;7.10;99.90
6407;DHT22;3236;51.022;6.818;2024-03-17T07:58:30;7.60;99.90
6407;DHT22;3236;51.022;6.818;2024-03-17T08:01:03;8.00;99.90
6407;DHT22;3236;51.022;6.818;2024-03-17T08:03:33;8.00;99.90
6407;DHT22;3236;51.022;6.818;2024-03-17T08:06:01;8.50;99.90
6407;DHT22;3236;51.022;6.818;2024-03-17T08:08:28;8.30;99.90
6407;DHT22;3236;51.022;6.818;2024-03-17T08:13:24;8.10;99.90
6407;DHT22;3236;51.022;6.818;2024-03-17T08:15:58;8.50;99.90
6407;DHT22;3236;51.022;6.818;2024-03-17T08:18:25;8.90;99.90
6407;DHT22;3236;51.022;6.818;2024-03-17T08:20:57;8.30;99.90
6407;DHT22;3236;51.022;6.818;2024-03-17T08:23:24;8.60;99.90
6407;DHT22;3236;51.022;6.818;2024-03-17T08:25:54;8.60;99.90
6407;DHT22;3236;51.022;6.818;2024-03-17T08:28:22;8.30;99.90
6407;DHT22;3236;51.022;6.818;2024-03-17T08:30:53;8.60;99.90
6407;DHT22;3236;51.022;6.818;2024-03-17T08:35:56;8.90;99.90
6407;DHT22;3236;51.022;6.818;2024-03-17T08:38:24;9.30;99.90
6407;DHT22;3236;51.022;6.818;2024-03-17T08:40:51;9.00;99.90
6407;DHT22;3236;51.022;6.818;2024-03-17T08:43:18;9.10;99.90
6407;DHT22;3236;51.022;6.818;2024-03-17T08:45:45;9.10;99.90
6407;DHT22;3236;51.022;6.818;2024-03-17T08:48:20;9.20;99.90
6407;DHT22;3236;51.022;6.818;2024-03-17T08:50:53;9.50;99.90
6407;DHT22;3236;51.022;6.818;2024-03-17T08:53:22;9.50;99.90
6407;DHT22;3236;51.022;6.818;2024-03-17T08:58:17;9.70;99.90
6407;DHT22;3236;51.022;6.818;2024-03-17T09:03:22;10.40;99.90
6407;DHT22;3236;51.022;6.818;2024-03-17T09:08:22;10.30;99.90
6407;DHT22;3236;51.022;6.818;2024-03-17T09:11:00;10.10;99.90
6407;DHT22;3236;51.022;6.818;2024-03-17T09:15:55;9.90;99.90
6407;DHT22;3236;51.022;6.818;2024-03-17T09:18:25;10.30;99.90
6407;DHT22;3236;51.022;6.818;2024-03-17T09:20:57;10.10;1.00
6407;DHT22;3236;51.022;6.818;2024-03-17T09:23:26;10.00;1.00
6407;DHT22;3236;51.022;6.818;2024-03-17T09:25:57;9.80;99.90
6407;DHT22;3236;51.022;6.818;2024-03-17T09:28:25;11.60;1.00
6407;DHT22;3236;51.022;6.818;2024-03-17T09:33:21;10.40;99.90
6407;DHT22;3236;51.022;6.818;2024-03-17T09:35:55;10.90;99.90
6407;DHT22;3236;51.022;6.818;2024-03-17T09:38:23;11.00;99.90
6407;DHT22;3236;51.022;6.818;2024-03-17T09:40:52;11.00;99.90
6407;DHT22;3236;51.022;6.818;2024-03-17T09:43:21;11.20;99.90
6407;DHT22;3236;51.022;6.818;2024-03-17T09:48:26;11.20;1.00
6407;DHT22;3236;51.022;6.818;2024-03-17T09:51:01;11.10;16.30
6407;DHT22;3236;51.022;6.818;2024-03-17T09:53:30;11.10;8.50
6407;DHT22;3236;51.022;6.818;2024-03-17T09:56:01;11.50;99.90
6407;DHT22;3236;51.022;6.818;2024-03-17T09:58:29;11.60;99.90
6407;DHT22;3236;51.022;6.818;2024-03-17T10:03:44;11.10;99.90
6407;DHT22;3236;51.022;6.818;2024-03-17T10:06:16;11.60;99.90
6407;DHT22;3236;51.022;6.818;2024-03-17T10:08:45;11.30;55.20
6407;DHT22;3236;51.022;6.818;2024-03-17T10:11:15;11.80;42.70
6407;DHT22;3236;51.022;6.818;2024-03-17T10:13:43;11.50;99.90
6407;DHT22;3236;51.022;6.818;2024-03-17T10:16:31;11.10;99.90
6407;DHT22;3236;51.022;6.818;2024-03-17T10:21:38;11.60;99.90
6407;DHT22;3236;51.022;6.818;2024-03-17T10:24:06;11.90;99.90
6407;DHT22;3236;51.022;6.818;2024-03-17T10:26:41;12.00;99.90
6407;DHT22;3236;51.022;6.818;2024-03-17T10:29:25;12.00;77.90
6407;DHT22;3236;51.022;6.818;2024-03-17T10:32:01;12.30;82.90
6407;DHT22;3236;51.022;6.818;2024-03-17T10:34:34;12.70;10.60
6407;DHT22;3236;51.022;6.818;2024-03-17T10:39:36;12.60;1.00
6407;DHT22;3236;51.022;6.818;2024-03-17T10:42:12;12.30;99.90
6407;DHT22;3236;51.022;6.818;2024-03-17T10:44:40;12.60;99.90
6407;DHT22;3236;51.022;6.818;2024-03-17T10:47:14;12.60;99.90
6407;DHT22;3236;51.022;6.818;2024-03-17T10:49:45;12.90;33.60
6407;DHT22;3236;51.022;6.818;2024-03-17T10:52:17;13.20;33.80
6407;DHT22;3236;51.022;6.818;2024-03-17T10:54:47;13.10;99.90
6407;DHT22;3236;51.022;6.818;2024-03-17T10:57:27;13.00;99.90
6407;DHT22;3236;51.022;6.818;2024-03-17T11:04:59;13.40;65.90
6407;DHT22;3236;51.022;6.818;2024-03-17T11:10:02;13.60;51.30
6407;DHT22;3236;51.022;6.818;2024-03-17T11:12:56;13.90;93.60
6407;DHT22;3236;51.022;6.818;2024-03-17T11:15:40;13.80;8.00
6407;DHT22;3236;51.022;6.818;2024-03-17T11:18:37;14.00;1.00
6407;DHT22;3236;51.022;6.818;2024-03-17T11:21:19;14.30;1.00
6407;DHT22;3236;51.022;6.818;2024-03-17T11:23:59;15.20;1.00
6407;DHT22;3236;51.022;6.818;2024-03-17T11:26:27;15.90;99.90
6407;DHT22;3236;51.022;6.818;2024-03-17T11:28:56;16.40;99.90
6407;DHT22;3236;51.022;6.818;2024-03-17T11:31:38;16.90;99.90
6407;DHT22;3236;51.022;6.818;2024-03-17T11:34:42;16.50;99.90
6407;DHT22;3236;51.022;6.818;2024-03-17T11:37:42;15.50;99.90
6407;DHT22;3236;51.022;6.818;2024-03-17T11:40:24;15.00;79.80
6407;DHT22;3236;51.022;6.818;2024-03-17T11:43:07;15.30;99.90
6407;DHT22;3236;51.022;6.818;2024-03-17T11:45:45;14.70;99.90
6407;DHT22;3236;51.022;6.818;2024-03-17T11:48:14;14.10;99.90
6407;DHT22;3236;51.022;6.818;2024-03-17T11:53:11;14.50;99.90
6407;DHT22;3236;51.022;6.818;2024-03-17T12:00:51;15.20;99.90
6407;DHT22;3236;51.022;6.818;2024-03-17T12:03:17;15.60;99.90
6407;DHT22;3236;51.022;6.818;2024-03-17T12:08:20;14.60;99.20
6407;DHT22;3236;51.022;6.818;2024-03-17T12:18:20;15.10;89.90
6407;DHT22;3236;51.022;6.818;2024-03-17T12:20:49;15.60;99.90
6407;DHT22;3236;51.022;6.818;2024-03-17T12:23:16;15.40;99.90
6407;DHT22;3236;51.022;6.818;2024-03-17T12:25:46;15.60;86.30
6407;DHT22;3236;51.022;6.818;2024-03-17T12:28:16;15.50;99.90
6407;DHT22;3236;51.022;6.818;2024-03-17T12:35:43;15.20;99.90
6407;DHT22;3236;51.022;6.818;2024-03-17T12:38:21;16.00;99.90
6407;DHT22;3236;51.022;6.818;2024-03-17T12:45:42;15.40;99.90
6407;DHT22;3236;51.022;6.818;2024-03-17T12:48:13;16.00;47.30
6407;DHT22;3236;51.022;6.818;2024-03-17T12:50:46;15.70;1.00
6407;DHT22;3236;51.022;6.818;2024-03-17T12:53:16;15.20;31.20
6407;DHT22;3236;51.022;6.818;2024-03-17T13:06:24;14.80;99.90
6407;DHT22;3236;51.022;6.818;2024-03-17T13:18:44;14.40;99.90
6407;DHT22;3236;51.022;6.818;2024-03-17T13:23:40;14.80;99.90
6407;DHT22;3236;51.022;6.818;2024-03-17T13:31:03;14.40;99.90
6407;DHT22;3236;51.022;6.818;2024-03-17T13:40:55;14.30;99.90
6407;DHT22;3236;51.022;6.818;2024-03-17T13:58:13;14.30;99.90
6407;DHT22;3236;51.022;6.818;2024-03-17T14:00:40;14.40;99.90
6407;DHT22;3236;51.022;6.818;2024-03-17T14:12:58;14.90;99.90
6407;DHT22;3236;51.022;6.818;2024-03-17T14:15:27;14.60;99.90
6407;DHT22;3236;51.022;6.818;2024-03-17T14:32:48;15.40;99.90
6407;DHT22;3236;51.022;6.818;2024-03-17T14:35:16;15.80;99.90
6407;DHT22;3236;51.022;6.818;2024-03-17T14:37:43;15.90;99.90
6407;DHT22;3236;51.022;6.818;2024-03-17T14:40:14;15.70;85.70
6407;DHT22;3236;51.022;6.818;2024-03-17T14:50:13;15.80;91.10
6407;DHT22;3236;51.022;6.818;2024-03-17T15:00:07;19.50;25.10
6407;DHT22;3236;51.022;6.818;2024-03-17T15:05:11;18.40;1.00
6407;DHT22;3236;51.022;6.818;2024-03-17T15:07:43;19.00;1.00
6407;DHT22;3236;51.022;6.818;2024-03-17T15:10:10;19.10;1.00
6407;DHT22;3236;51.022;6.818;2024-03-17T15:12:38;19.90;1.00
6407;DHT22;3236;51.022;6.818;2024-03-17T15:15:07;18.60;1.00
6407;DHT22;3236;51.022;6.818;2024-03-17T15:20:04;17.50;1.00
6407;DHT22;3236;51.022;6.818;2024-03-17T15:22:44;17.10;99.90
6407;DHT22;3236;51.022;6.818;2024-03-17T15:27:42;16.90;1.00
6407;DHT22;3236;51.022;6.818;2024-03-17T15:32:41;16.60;99.90
6407;DHT22;3236;51.022;6.818;2024-03-17T15:35:10;16.50;99.90
6407;DHT22;3236;51.022;6.818;2024-03-17T15:40:09;16.60;1.00
6407;DHT22;3236;51.022;6.818;2024-03-17T15:47:37;16.80;99.90
6407;DHT22;3236;51.022;6.818;2024-03-17T15:50:05;16.40;99.90
6407;DHT22;3236;51.022;6.818;2024-03-17T15:55:01;15.80;99.90
6407;DHT22;3236;51.022;6.818;2024-03-17T16:02:25;16.50;1.00
6407;DHT22;3236;51.022;6.818;2024-03-17T16:04:53;16.40;1.00
6407;DHT22;3236;51.022;6.818;2024-03-17T16:09:50;16.10;1.00
6407;DHT22;3236;51.022;6.818;2024-03-17T16:12:18;15.90;1.00
6407;DHT22;3236;51.022;6.818;2024-03-17T16:14:48;15.50;1.00
6407;DHT22;3236;51.022;6.818;2024-03-17T16:17:18;15.40;45.70
6407;DHT22;3236;51.022;6.818;2024-03-17T16:19:47;15.60;99.90
6407;DHT22;3236;51.022;6.818;2024-03-17T16:24:43;15.20;99.90
6407;DHT22;3236;51.022;6.818;2024-03-17T16:29:49;14.60;99.90
6407;DHT22;3236;51.022;6.818;2024-03-17T16:32:19;14.80;99.90
6407;DHT22;3236;51.022;6.818;2024-03-17T16:44:43;14.20;99.90
6407;DHT22;3236;51.022;6.818;2024-03-17T16:47:29;14.30;99.90
6407;DHT22;3236;51.022;6.818;2024-03-17T16:50:03;13.80;99.90
6407;DHT22;3236;51.022;6.818;2024-03-17T16:52:34;13.90;99.90
6407;DHT22;3236;51.022;6.818;2024-03-17T17:00:07;13.70;99.90
6407;DHT22;3236;51.022;6.818;2024-03-17T17:02:47;13.50;99.90
6407;DHT22;3236;51.022;6.818;2024-03-17T17:10:13;14.90;99.90
6407;DHT22;3236;51.022;6.818;2024-03-17T17:15:11;13.40;99.90
6407;DHT22;3236;51.022;6.818;2024-03-17T17:20:10;13.10;77.00
6407;DHT22;3236;51.022;6.818;2024-03-17T17:22:38;13.00;99.90
6407;DHT22;3236;51.022;6.818;2024-03-17T17:25:09;12.80;99.90
6407;DHT22;3236;51.022;6.818;2024-03-17T17:40:08;13.10;99.90
6407;DHT22;3236;51.022;6.818;2024-03-17T17:52:33;12.60;99.90
6407;DHT22;3236;51.022;6.818;2024-03-17T17:55:01;12.30;1.00
6407;DHT22;3236;51.022;6.818;2024-03-17T17:57:28;12.40;31.70
6407;DHT22;3236;51.022;6.818;2024-03-17T18:09:52;12.30;99.90
6407;DHT22;3236;51.022;6.818;2024-03-17T18:12:20;12.50;29.70
6407;DHT22;3236;51.022;6.818;2024-03-17T18:14:47;12.40;1.00
6407;DHT22;3236;51.022;6.818;2024-03-17T18:22:16;12.50;99.90
6407;DHT22;3236;51.022;6.818;2024-03-17T18:24:44;11.90;99.90
6407;DHT22;3236;51.022;6.818;2024-03-17T18:27:13;12.10;99.90
6407;DHT22;3236;51.022;6.818;2024-03-17T18:32:07;12.20;99.90
6407;DHT22;3236;51.022;6.818;2024-03-17T18:41:57;12.50;10.30
6407;DHT22;3236;51.022;6.818;2024-03-17T18:44:26;12.30;99.90
6407;DHT22;3236;51.022;6.818;2024-03-17T18:51:49;12.60;1.00
6407;DHT22;3236;51.022;6.818;2024-03-17T18:54:17;12.30;99.90
6407;DHT22;3236;51.022;6.818;2024-03-17T18:56:44;12.10;30.60
6407;DHT22;3236;51.022;6.818;2024-03-17T18:59:12;12.10;96.30
6407;DHT22;3236;51.022;6.818;2024-03-17T19:04:11;11.30;99.90
6407;DHT22;3236;51.022;6.818;2024-03-17T19:06:38;11.40;99.90
6407;DHT22;3236;51.022;6.818;2024-03-17T19:09:05;11.00;99.90
6407;DHT22;3236;51.022;6.818;2024-03-17T19:11:36;11.50;1.00
6407;DHT22;3236;51.022;6.818;2024-03-17T19:14:03;11.20;1.30
6407;DHT22;3236;51.022;6.818;2024-03-17T19:16:31;11.00;99.90
6407;DHT22;3236;51.022;6.818;2024-03-17T19:18:59;11.10;1.00
6407;DHT22;3236;51.022;6.818;2024-03-17T19:21:27;11.50;1.00
6407;DHT22;3236;51.022;6.818;2024-03-17T19:23:54;11.20;99.90
6407;DHT22;3236;51.022;6.818;2024-03-17T19:26:21;11.40;6.40
6407;DHT22;3236;51.022;6.818;2024-03-17T19:28:49;11.30;99.90
6407;DHT22;3236;51.022;6.818;2024-03-17T19:31:17;11.40;99.90
6407;DHT22;3236;51.022;6.818;2024-03-17T19:33:45;11.00;99.90
6407;DHT22;3236;51.022;6.818;2024-03-17T19:36:14;11.10;99.90
6407;DHT22;3236;51.022;6.818;2024-03-17T19:38:41;11.50;99.90
6407;DHT22;3236;51.022;6.818;2024-03-17T19:41:11;11.10;99.90
6407;DHT22;3236;51.022;6.818;2024-03-17T19:43:38;11.50;1.00
6407;DHT22;3236;51.022;6.818;2024-03-17T19:46:08;11.10;1.00
6407;DHT22;3236;51.022;6.818;2024-03-17T19:51:10;11.20;99.90
6407;DHT22;3236;51.022;6.818;2024-03-17T19:53:39;11.20;99.90
6407;DHT22;3236;51.022;6.818;2024-03-17T20:05:58;10.80;4.20
6407;DHT22;3236;51.022;6.818;2024-03-17T20:11:01;11.20;1.00
6407;DHT22;3236;51.022;6.818;2024-03-17T20:16:03;11.20;1.00
6407;DHT22;3236;51.022;6.818;2024-03-17T20:23:29;11.30;99.90
6407;DHT22;3236;51.022;6.818;2024-03-17T20:25:58;11.20;54.60
6407;DHT22;3236;51.022;6.818;2024-03-17T20:30:56;11.60;1.00
6407;DHT22;3236;51.022;6.818;2024-03-17T20:55:41;11.60;99.90
6407;DHT22;3236;51.022;6.818;2024-03-17T21:00:38;11.40;99.90
6407;DHT22;3236;51.022;6.818;2024-03-17T21:15:26;11.70;99.90
6407;DHT22;3236;51.022;6.818;2024-03-17T21:17:54;11.30;99.90
6407;DHT22;3236;51.022;6.818;2024-03-17T21:25:23;11.30;59.00
6407;DHT22;3236;51.022;6.818;2024-03-17T21:30:19;11.00;99.90
6407;DHT22;3236;51.022;6.818;2024-03-17T21:35:17;11.30;99.90
6407;DHT22;3236;51.022;6.818;2024-03-17T21:40:16;11.20;99.90
6407;DHT22;3236;51.022;6.818;2024-03-17T21:45:11;10.90;99.90
6407;DHT22;3236;51.022;6.818;2024-03-17T21:47:39;11.30;99.90
6407;DHT22;3236;51.022;6.818;2024-03-17T21:52:40;11.20;99.90
6407;DHT22;3236;51.022;6.818;2024-03-17T21:55:08;10.90;99.90
6407;DHT22;3236;51.022;6.818;2024-03-17T22:00:05;11.00;1.00
6407;DHT22;3236;51.022;6.818;2024-03-17T22:05:05;11.10;99.20
6407;DHT22;3236;51.022;6.818;2024-03-17T22:07:32;11.10;99.90
6407;DHT22;3236;51.022;6.818;2024-03-17T22:10:01;11.10;99.90
6407;DHT22;3236;51.022;6.818;2024-03-17T22:27:23;11.10;99.90
6407;DHT22;3236;51.022;6.818;2024-03-17T22:32:20;11.20;99.90
6407;DHT22;3236;51.022;6.818;2024-03-17T22:37:15;11.40;99.90
6407;DHT22;3236;51.022;6.818;2024-03-17T22:39:48;11.00;99.90
6407;DHT22;3236;51.022;6.818;2024-03-17T22:44:47;11.00;99.90
6407;DHT22;3236;51.022;6.818;2024-03-17T23:02:00;11.00;99.90
6407;DHT22;3236;51.022;6.818;2024-03-17T23:16:50;10.60;99.90
6407;DHT22;3236;51.022;6.818;2024-03-17T23:19:20;10.50;99.90
6407;DHT22;3236;51.022;6.818;2024-03-17T23:36:32;10.50;99.90
6407;DHT22;3236;51.022;6.818;2024-03-17T23:41:31;10.90;99.90
6407;DHT22;3236;51.022;6.818;2024-03-17T23:51:20;10.20;99.90
6407;DHT22;3236;51.022;6.818;2024-03-17T23:58:46;10.30;99.90
